Time;durP1;ratioP1;P1;durP2;ratioP2;P2;SDS_P1;SDS_P2;PMS_P1;PMS_P2;Temp;Humidity;BMP_temperature;BMP_pressure;BME280_temperature;BME280_humidity;BME280_pressure;Samples;Min_cycle;Max_cycle;Signal;HPM_P1;HPM_P2
2021/09/25 00:01:17;;;;;;;13.78;7.28;;;;;;;15.24;74.19;100325.43;1757523;81;21027;-80
2021/09/25 00:03:43;;;;;;;11.03;7.28;;;;;;;15.24;74.19;100325.43;1757270;81;20938;-80
2021/09/25 00:06:09;;;;;;;11.22;5.55;;;;;;;15.27;74.15;100322.88;1757592;81;21066;-80
2021/09/25 00:08:35;;;;;;;8.35;6.25;;;;;;;15.27;74.15;100322.88;1757483;81;22189;-80
2021/09/25 00:11:01;;;;;;;15.85;7.30;;;;;;;15.35;74.41;100338.80;1757652;80;20988;-81
2021/09/25 00:13:27;;;;;;;13.18;7.12;;;;;;;15.34;74.52;100336.62;1758513;81;21573;-80
2021/09/25 00:15:53;;;;;;;15.03;7.35;;;;;;;15.34;74.52;100336.62;1759059;81;20943;-80
2021/09/25 00:18:18;;;;;;;12.55;7.35;;;;;;;15.33;74.51;100338.18;1758887;81;20860;-80
2021/09/25 00:20:45;;;;;;;14.60;7.70;;;;;;;15.33;74.52;100341.70;1758518;81;21148;-80
2021/09/25 00:23:11;;;;;;;10.35;6.42;;;;;;;15.22;74.80;100319.44;1757492;81;21011;-80
2021/09/25 00:25:37;;;;;;;11.78;5.67;;;;;;;15.22;74.80;100319.44;1756767;81;21620;-80
2021/09/25 00:28:03;;;;;;;10.85;6.97;;;;;;;15.34;74.73;100337.96;1757351;81;21523;-80
2021/09/25 00:30:29;;;;;;;10.15;6.10;;;;;;;15.34;74.73;100337.96;1757134;81;21034;-80
2021/09/25 00:32:55;;;;;;;9.35;6.03;;;;;;;15.35;74.70;100332.08;1757251;81;21123;-80
2021/09/25 00:35:21;;;;;;;12.50;6.17;;;;;;;15.35;74.62;100342.31;1758214;81;20999;-80
2021/09/25 00:37:48;;;;;;;11.45;6.70;;;;;;;15.36;74.77;100338.61;1758867;81;20984;-80
2021/09/25 00:40:15;;;;;;;14.98;6.92;;;;;;;15.37;74.81;100338.92;1758826;81;20983;-80
2021/09/25 00:42:41;;;;;;;11.50;7.28;;;;;;;15.28;74.82;100315.94;1758773;81;21097;-80
2021/09/25 00:45:10;;;;;;;13.32;7.35;;;;;;;15.38;74.75;100329.81;1758861;81;21508;-80
2021/09/25 00:47:36;;;;;;;9.93;7.07;;;;;;;15.38;74.75;100329.81;1759025;81;20979;-80
2021/09/25 00:50:04;;;;;;;11.78;6.83;;;;;;;15.39;74.93;100326.10;1758888;81;21011;-80
2021/09/25 00:52:30;;;;;;;10.68;7.42;;;;;;;15.39;74.93;100326.10;1728405;83;21018;-80
2021/09/25 00:54:56;;;;;;;10.63;7.03;;;;;;;15.39;75.00;100326.10;1728821;83;21023;-80
2021/09/25 00:57:22;;;;;;;10.10;6.90;;;;;;;15.39;75.00;100326.10;1728574;82;21076;-80
2021/09/25 00:59:48;;;;;;;11.80;7.97;;;;;;;15.35;75.06;100310.58;1728437;82;21038;-80
2021/09/25 01:02:18;;;;;;;12.53;7.78;;;;;;;15.40;75.08;100320.22;1728620;82;21062;-80
2021/09/25 01:04:42;;;;;;;12.70;7.50;;;;;;;15.41;75.11;100321.34;1727998;82;21038;-80
2021/09/25 01:07:08;;;;;;;9.23;6.85;;;;;;;15.31;75.30;100304.78;1728764;82;21002;-80
2021/09/25 01:09:34;;;;;;;13.32;7.53;;;;;;;15.31;75.30;100304.78;1728604;81;21115;-80
2021/09/25 01:12:00;;;;;;;11.00;6.80;;;;;;;15.43;75.33;100326.53;1744539;81;21027;-81
2021/09/25 01:14:30;;;;;;;9.68;7.17;;;;;;;15.36;75.29;100302.33;1758746;81;20990;-80
2021/09/25 01:16:54;;;;;;;10.63;7.10;;;;;;;15.45;75.29;100330.66;1758374;81;21055;-80
2021/09/25 01:19:20;;;;;;;13.35;8.15;;;;;;;15.48;75.31;100325.41;1693488;81;21018;-80
2021/09/25 01:21:46;;;;;;;11.22;7.00;;;;;;;15.47;75.34;100325.92;1758574;81;21318;-80
2021/09/25 01:24:12;;;;;;;10.15;7.12;;;;;;;15.49;75.37;100330.60;1758775;81;20999;-81
2021/09/25 01:26:38;;;;;;;11.33;8.00;;;;;;;15.51;75.39;100332.27;1758581;81;21053;-80
2021/09/25 01:29:05;;;;;;;13.10;7.40;;;;;;;15.50;75.42;100330.09;1758963;81;20975;-80
2021/09/25 01:31:31;;;;;;;13.15;8.45;;;;;;;15.49;75.47;100330.60;1758732;81;21452;-80
2021/09/25 01:33:57;;;;;;;12.45;7.92;;;;;;;15.51;75.48;100344.36;1758926;81;21018;-80
2021/09/25 01:36:23;;;;;;;11.18;7.92;;;;;;;15.51;75.37;100334.95;1758844;81;20975;-80
2021/09/25 01:38:49;;;;;;;12.75;7.80;;;;;;;15.53;75.52;100334.22;1758382;80;20983;-80
2021/09/25 01:41:15;;;;;;;11.95;8.13;;;;;;;15.52;75.53;100337.42;1758630;81;20876;-80
2021/09/25 01:43:42;;;;;;;15.25;8.18;;;;;;;15.54;75.58;100342.61;1758692;81;21030;-80
2021/09/25 01:46:08;;;;;;;12.10;7.40;;;;;;;15.43;75.58;100326.53;1758990;81;21046;-80
2021/09/25 01:48:34;;;;;;;12.65;8.30;;;;;;;15.55;75.62;100342.93;1758670;81;21519;-81
2021/09/25 01:51:00;;;;;;;13.60;8.98;;;;;;;15.55;75.63;100345.62;1758304;81;20868;-80
2021/09/25 01:53:26;;;;;;;11.05;8.63;;;;;;;15.55;75.67;100342.93;1757182;81;20999;-80
2021/09/25 01:55:52;;;;;;;12.40;9.08;;;;;;;15.56;75.69;100349.94;1756763;81;21021;-80
2021/09/25 01:58:19;;;;;;;11.65;8.30;;;;;;;15.54;75.71;100340.75;1758321;81;21885;-80
2021/09/25 02:00:45;;;;;;;15.23;9.63;;;;;;;15.54;75.73;100341.27;1758213;81;21003;-80
2021/09/25 02:03:12;;;;;;;10.98;7.35;;;;;;;15.34;75.75;100309.75;1757070;81;20991;-80
2021/09/25 02:05:38;;;;;;;14.47;8.30;;;;;;;15.55;75.78;100342.39;1758720;81;21030;-80
2021/09/25 02:08:04;;;;;;;12.85;8.48;;;;;;;15.54;75.85;100337.23;1759071;81;21011;-80
2021/09/25 02:10:31;;;;;;;17.10;8.60;;;;;;;15.55;75.87;100348.30;1758529;80;21206;-81
2021/09/25 02:12:57;;;;;;;8.68;7.60;;;;;;;15.55;75.90;100334.86;1758652;81;21022;-80
2021/09/25 02:15:23;;;;;;;13.68;8.13;;;;;;;15.54;75.94;100335.89;1758707;81;20986;-80
2021/09/25 02:17:49;;;;;;;12.40;8.13;;;;;;;15.54;75.99;100339.41;1758846;81;20983;-80
2021/09/25 02:20:15;;;;;;;10.68;7.90;;;;;;;15.56;76.03;100336.50;1758719;81;21491;-80
2021/09/25 02:22:41;;;;;;;12.15;8.65;;;;;;;15.58;76.05;100337.14;1758933;81;21813;-80
2021/09/25 02:25:08;;;;;;;12.98;8.55;;;;;;;15.58;76.07;100342.52;1758858;81;21440;-80
2021/09/25 02:27:40;;;;;;;14.68;9.63;;;;;;;15.58;76.12;100339.83;1758571;81;21027;-80
2021/09/25 02:30:03;;;;;;;12.70;9.25;;;;;;;15.57;76.12;100336.31;1757893;81;21102;-81
2021/09/25 02:32:29;;;;;;;11.15;8.35;;;;;;;15.56;76.22;100333.30;1758663;81;20971;-80
2021/09/25 02:34:55;;;;;;;11.22;9.15;;;;;;;15.55;76.22;100333.52;1758851;81;21149;-80
2021/09/25 02:37:21;;;;;;;12.40;7.87;;;;;;;15.56;76.24;100335.16;1758738;81;20884;-80
2021/09/25 02:39:47;;;;;;;12.55;8.70;;;;;;;15.56;76.29;100341.36;1764648;80;20915;-80
2021/09/25 02:42:13;;;;;;;14.50;8.40;;;;;;;15.56;76.31;100340.53;1763481;80;21011;-80
2021/09/25 02:44:39;;;;;;;11.78;9.40;;;;;;;15.57;76.24;100350.27;1763278;80;21039;-80
2021/09/25 02:47:05;;;;;;;13.18;8.90;;;;;;;15.45;76.37;100327.97;1765598;80;21189;-80
2021/09/25 02:49:31;;;;;;;8.90;7.72;;;;;;;15.57;76.42;100351.61;1765203;81;21018;-80
2021/09/25 02:51:58;;;;;;;15.35;8.55;;;;;;;15.58;76.45;100345.20;1766678;81;20903;-81
2021/09/25 02:54:24;;;;;;;11.55;7.95;;;;;;;15.59;76.47;100348.19;1767079;80;21034;-80
2021/09/25 02:56:50;;;;;;;13.30;9.63;;;;;;;15.58;76.51;100353.27;1767190;81;21002;-81
2021/09/25 02:59:16;;;;;;;17.15;10.15;;;;;;;15.59;76.54;100349.53;1766835;81;21772;-80
2021/09/25 03:01:42;;;;;;;16.82;10.32;;;;;;;15.60;76.52;100345.81;1756932;81;21079;-80
2021/09/25 03:04:08;;;;;;;16.65;10.65;;;;;;;15.60;76.60;100347.16;1767358;81;20990;-80
2021/09/25 03:06:34;;;;;;;16.00;9.30;;;;;;;15.61;76.62;100348.83;1766811;79;21003;-80
2021/09/25 03:09:00;;;;;;;14.80;10.55;;;;;;;15.51;76.76;100329.06;1767212;80;21050;-80
2021/09/25 03:11:26;;;;;;;14.55;8.78;;;;;;;15.51;76.76;100329.06;1766765;79;21130;-80
2021/09/25 03:13:52;;;;;;;13.25;10.10;;;;;;;15.63;76.71;100346.23;1767046;80;20890;-81
2021/09/25 03:16:18;;;;;;;12.90;10.55;;;;;;;15.65;76.73;100351.42;1767019;80;20887;-80
2021/09/25 03:18:44;;;;;;;14.43;10.40;;;;;;;15.65;76.74;100348.73;1767235;81;21455;-81
2021/09/25 03:21:10;;;;;;;10.90;9.48;;;;;;;15.67;76.77;100353.38;1766763;80;21495;-80
2021/09/25 03:23:36;;;;;;;16.00;9.43;;;;;;;15.68;76.79;100352.36;1765310;81;21989;-80
2021/09/25 03:26:02;;;;;;;19.20;10.25;;;;;;;15.68;76.80;100352.36;1765748;81;20891;-81
2021/09/25 03:28:28;;;;;;;12.33;9.58;;;;;;;15.68;76.82;100353.70;1765724;80;21003;-81
2021/09/25 03:30:54;;;;;;;11.63;9.50;;;;;;;15.68;76.83;100361.77;1765426;81;21085;-81
2021/09/25 03:33:20;;;;;;;16.05;10.75;;;;;;;15.68;76.85;100358.57;1766423;81;20999;-81
2021/09/25 03:35:46;;;;;;;12.58;10.05;;;;;;;15.68;76.87;100345.64;1767304;79;21131;-81
2021/09/25 03:38:17;;;;;;;14.03;10.80;;;;;;;15.67;76.90;100338.08;1764575;80;21472;-80
2021/09/25 03:40:42;;;;;;;12.07;9.78;;;;;;;15.67;76.90;100338.08;1758741;81;20975;-80
2021/09/25 03:43:08;;;;;;;13.62;10.88;;;;;;;15.68;76.85;100343.78;1758736;81;21048;-80
2021/09/25 03:45:34;;;;;;;13.93;10.23;;;;;;;15.68;76.85;100343.78;1758314;81;21031;-81
2021/09/25 03:48:00;;;;;;;16.97;11.97;;;;;;;15.69;76.94;100336.55;1758349;81;21159;-81
2021/09/25 03:50:26;;;;;;;14.38;10.43;;;;;;;15.71;76.95;100345.22;1757185;81;21031;-81
2021/09/25 03:52:52;;;;;;;18.02;10.70;;;;;;;15.70;76.98;100339.52;1758677;81;20864;-80
2021/09/25 03:55:18;;;;;;;15.08;10.63;;;;;;;15.71;77.00;100339.84;1758642;81;21010;-80
2021/09/25 03:57:44;;;;;;;11.90;9.30;;;;;;;15.72;77.03;100345.55;1758870;81;21034;-80
2021/09/25 04:00:11;;;;;;;11.75;8.98;;;;;;;15.72;77.06;100350.92;1759006;81;21150;-80
2021/09/25 04:02:37;;;;;;;12.70;9.60;;;;;;;15.73;77.07;100353.91;1758690;81;21488;-80
2021/09/25 04:05:04;;;;;;;14.30;10.18;;;;;;;15.62;77.08;100336.51;1758634;81;20984;-80
2021/09/25 04:07:30;;;;;;;12.50;10.70;;;;;;;15.74;77.09;100360.95;1758608;81;21523;-80
2021/09/25 04:09:56;;;;;;;13.03;8.88;;;;;;;15.74;77.00;100354.22;1758324;80;21061;-80
2021/09/25 04:12:23;;;;;;;11.28;9.13;;;;;;;15.74;77.00;100354.22;1758577;81;21649;-80
2021/09/25 04:14:49;;;;;;;15.23;9.05;;;;;;;15.74;77.16;100356.40;1758321;81;21003;-80
2021/09/25 04:17:15;;;;;;;10.60;8.43;;;;;;;15.76;77.17;100358.89;1758297;81;21002;-80
2021/09/25 04:19:41;;;;;;;11.57;9.03;;;;;;;15.78;77.18;100356.81;1758752;81;20864;-81
2021/09/25 04:22:07;;;;;;;12.35;8.20;;;;;;;15.77;77.21;100357.84;1757333;81;20979;-80
2021/09/25 04:24:33;;;;;;;9.70;8.13;;;;;;;15.78;77.21;100356.31;1756765;81;21086;-80
2021/09/25 04:26:59;;;;;;;12.43;8.68;;;;;;;15.78;77.23;100354.12;1756865;81;21014;-80
2021/09/25 04:29:25;;;;;;;12.37;8.53;;;;;;;15.79;77.40;100350.42;1756961;81;21038;-80
2021/09/25 04:31:51;;;;;;;11.05;8.95;;;;;;;15.79;77.26;100349.07;1756938;81;21035;-80
2021/09/25 04:34:17;;;;;;;13.18;9.50;;;;;;;15.79;77.28;100350.42;1757046;81;20912;-80
2021/09/25 04:36:43;;;;;;;11.45;8.70;;;;;;;15.80;77.29;100349.36;1758376;81;21132;-81
2021/09/25 04:39:09;;;;;;;11.70;9.10;;;;;;;15.80;77.32;100349.36;1763000;80;21042;-80
2021/09/25 04:41:35;;;;;;;9.08;8.18;;;;;;;15.80;77.29;100352.05;1766968;81;20978;-81
2021/09/25 04:44:01;;;;;;;12.53;8.50;;;;;;;15.81;77.50;100359.92;1767174;80;21018;-81
2021/09/25 04:46:27;;;;;;;12.95;9.75;;;;;;;15.72;77.33;100336.13;1730464;83;21051;-80
2021/09/25 04:48:53;;;;;;;11.25;8.70;;;;;;;15.83;77.33;100365.91;1730675;82;21189;-81
2021/09/25 04:51:19;;;;;;;11.08;8.88;;;;;;;15.84;77.34;100364.06;1729697;82;20915;-80
2021/09/25 04:53:45;;;;;;;12.65;8.80;;;;;;;15.84;77.31;100362.72;1728836;83;21085;-81
2021/09/25 04:56:11;;;;;;;11.65;8.03;;;;;;;15.84;77.33;100356.83;1728899;82;21016;-81
2021/09/25 04:58:38;;;;;;;13.78;8.10;;;;;;;15.85;77.33;100368.41;1728668;82;21492;-80
2021/09/25 05:01:07;;;;;;;11.48;8.28;;;;;;;15.79;77.32;100353.11;1729035;82;21234;-81
2021/09/25 05:03:33;;;;;;;13.08;7.67;;;;;;;15.84;77.31;100364.06;1730973;82;21478;-80
2021/09/25 05:06:01;;;;;;;13.98;8.85;;;;;;;15.86;77.32;100371.42;1731186;82;20992;-80
2021/09/25 05:08:27;;;;;;;10.72;8.53;;;;;;;15.88;77.32;100376.06;1730897;82;21516;-81
2021/09/25 05:10:53;;;;;;;11.25;8.23;;;;;;;15.87;77.31;100372.55;1730898;82;21472;-80
2021/09/25 05:13:19;;;;;;;12.20;8.73;;;;;;;15.89;77.31;100376.39;1731175;82;22171;-81
2021/09/25 05:15:45;;;;;;;13.40;8.20;;;;;;;15.90;77.31;100369.98;1730573;82;21663;-81
2021/09/25 05:18:11;;;;;;;11.55;7.78;;;;;;;15.91;77.28;100368.93;1725417;81;21066;-81
2021/09/25 05:20:37;;;;;;;12.05;9.68;;;;;;;15.91;77.28;100372.97;1728064;83;21010;-81
2021/09/25 05:25:49;;;;;;;10.50;8.48;;;;;;;15.98;77.26;100379.18;1834057;77;21993;-80
2021/09/25 05:28:15;;;;;;;12.05;8.40;;;;;;;15.95;77.24;100386.31;1792692;80;21490;-80
2021/09/25 05:30:41;;;;;;;11.50;7.87;;;;;;;15.95;77.24;100389.84;1792266;79;21847;-81
2021/09/25 05:33:07;;;;;;;9.98;7.90;;;;;;;15.97;77.38;100391.00;1792794;80;20895;-80
2021/09/25 05:35:33;;;;;;;11.83;7.72;;;;;;;15.98;77.21;100398.84;1792593;80;21030;-80
2021/09/25 05:37:59;;;;;;;8.30;7.50;;;;;;;15.98;77.19;100393.97;1791859;79;21040;-80
2021/09/25 05:40:25;;;;;;;12.10;7.50;;;;;;;15.99;77.19;100393.78;1792641;79;20958;-81
2021/09/25 05:42:51;;;;;;;12.15;7.97;;;;;;;16.00;77.18;100393.27;1792883;79;20984;-80
2021/09/25 05:45:17;;;;;;;8.20;7.35;;;;;;;16.03;77.17;100403.62;1792572;79;21004;-80
2021/09/25 05:47:44;;;;;;;11.25;8.08;;;;;;;16.06;77.16;100404.55;1792790;79;20986;-81
2021/09/25 05:50:11;;;;;;;12.10;7.12;;;;;;;16.07;77.14;100400.83;1792716;80;21514;-81
2021/09/25 05:52:37;;;;;;;8.70;7.55;;;;;;;16.09;77.12;100398.75;1792760;79;21476;-81
2021/09/25 05:55:05;;;;;;;12.85;8.98;;;;;;;16.10;77.11;100401.77;1790520;78;21897;-81
2021/09/25 05:57:31;;;;;;;12.78;8.28;;;;;;;16.13;77.10;100400.52;1806948;78;21007;-81
2021/09/25 05:59:57;;;;;;;12.05;8.43;;;;;;;16.14;77.07;100403.02;1788796;78;20961;-80
2021/09/25 06:02:24;;;;;;;37.90;9.68;;;;;;;16.18;77.02;100401.58;1802769;78;21415;-80
2021/09/25 06:04:50;;;;;;;15.65;9.73;;;;;;;16.20;77.02;100404.88;1828010;78;21463;-81
2021/09/25 06:07:16;;;;;;;17.70;8.48;;;;;;;16.24;76.99;100407.47;1797107;78;21887;-81
2021/09/25 06:09:42;;;;;;;11.95;8.75;;;;;;;16.28;76.97;100412.75;1787741;78;21122;-80
2021/09/25 06:12:08;;;;;;;11.25;7.65;;;;;;;16.32;76.94;100415.34;1760783;80;21055;-80
2021/09/25 06:14:35;;;;;;;11.43;6.87;;;;;;;16.37;76.92;100414.19;1774630;80;20997;-81
2021/09/25 06:17:01;;;;;;;8.75;6.97;;;;;;;16.39;76.87;100420.21;1775115;80;21007;-80
2021/09/25 06:19:27;;;;;;;8.73;7.15;;;;;;;16.43;76.87;100424.12;1760913;80;21079;-80
2021/09/25 06:21:53;;;;;;;7.78;6.95;;;;;;;16.49;76.81;100417.09;1764136;80;20995;-80
2021/09/25 06:24:19;;;;;;;9.58;7.03;;;;;;;16.55;76.75;100416.77;1779790;80;21041;-80
2021/09/25 06:26:45;;;;;;;10.88;7.47;;;;;;;16.63;76.72;100417.94;1760783;80;20868;-80
2021/09/25 06:29:11;;;;;;;9.43;7.37;;;;;;;16.69;76.67;100408.51;1774585;80;21626;-81
2021/09/25 06:31:37;;;;;;;15.00;7.22;;;;;;;16.78;76.63;100411.82;1768400;80;21574;-81
2021/09/25 06:34:03;;;;;;;8.55;7.03;;;;;;;16.85;76.57;100415.33;1766472;80;21745;-81
2021/09/25 06:36:32;;;;;;;8.50;6.78;;;;;;;16.89;76.47;100415.19;1759935;80;21090;-81
2021/09/25 06:38:57;;;;;;;9.58;7.72;;;;;;;16.93;76.39;100418.61;1740055;81;21488;-81
2021/09/25 06:41:23;;;;;;;12.28;6.65;;;;;;;17.02;76.33;100420.58;1714834;83;21026;-80
2021/09/25 06:43:49;;;;;;;9.93;7.70;;;;;;;17.11;76.22;100419.30;1708958;83;22149;-81
2021/09/25 06:46:15;;;;;;;8.10;6.75;;;;;;;17.26;76.10;100429.31;1708770;83;21018;-81
2021/09/25 06:48:42;;;;;;;8.73;6.58;;;;;;;17.45;75.98;100423.00;1712401;83;21036;-81
2021/09/25 06:51:09;;;;;;;7.90;6.60;;;;;;;17.50;75.84;100429.11;1702055;83;22416;-80
2021/09/25 06:53:35;;;;;;;14.35;7.45;;;;;;;17.45;75.71;100427.05;1711600;83;21504;-80
2021/09/25 06:56:01;;;;;;;9.55;7.22;;;;;;;17.52;75.63;100428.91;1714479;83;21949;-81
2021/09/25 06:58:27;;;;;;;13.32;7.03;;;;;;;17.56;75.51;100424.75;1708023;83;21032;-81
2021/09/25 07:00:53;;;;;;;14.47;7.05;;;;;;;17.58;75.36;100426.21;1709414;83;21021;-81
2021/09/25 07:03:19;;;;;;;9.70;6.65;;;;;;;17.60;75.19;100428.67;1712022;82;20896;-81
2021/09/25 07:06:24;;;;;;;11.12;6.50;;;;;;;17.72;75.09;100420.22;1698857;83;21011;-86
2021/09/25 07:08:51;;;;;;;10.95;7.25;;;;;;;17.82;74.93;100413.83;1756505;81;21302;-81
2021/09/25 07:11:17;;;;;;;11.80;6.03;;;;;;;18.10;74.77;100424.23;1754741;81;21609;-81
2021/09/25 07:13:43;;;;;;;11.45;7.35;;;;;;;18.43;74.66;100428.36;1753979;81;21525;-81
2021/09/25 07:16:12;;;;;;;9.28;6.72;;;;;;;18.57;74.43;100430.98;1728994;82;21050;-81
2021/09/25 07:18:39;;;;;;;9.03;6.45;;;;;;;18.51;74.20;100433.22;1744211;82;21561;-82
2021/09/25 07:21:06;;;;;;;10.15;6.97;;;;;;;18.41;73.95;100435.02;1743648;81;21842;-81
2021/09/25 07:23:33;;;;;;;10.23;7.37;;;;;;;18.31;73.78;100440.91;1771970;81;21015;-81
2021/09/25 07:25:59;;;;;;;10.00;6.78;;;;;;;18.25;73.60;100441.80;1770777;81;21055;-81
2021/09/25 07:28:25;;;;;;;11.38;6.50;;;;;;;18.20;73.43;100444.83;1733941;81;20954;-81
2021/09/25 07:30:51;;;;;;;10.43;7.25;;;;;;;18.17;73.31;100447.45;1714537;83;21025;-81
2021/09/25 07:33:17;;;;;;;9.10;7.10;;;;;;;18.21;73.22;100458.64;1737792;82;21141;-81
2021/09/25 07:35:44;;;;;;;14.15;7.35;;;;;;;18.22;73.14;100461.13;1737487;82;21032;-81
2021/09/25 07:38:10;;;;;;;11.20;7.47;;;;;;;18.21;73.06;100459.47;1739619;80;21049;-81
2021/09/25 07:40:36;;;;;;;11.90;7.65;;;;;;;18.25;73.03;100466.61;1762765;81;21896;-81
2021/09/25 07:43:03;;;;;;;9.40;6.83;;;;;;;18.23;72.94;100467.33;1773412;81;21498;-81
2021/09/25 07:45:29;;;;;;;11.88;7.40;;;;;;;18.19;72.85;100462.89;1754416;81;21139;-81
2021/09/25 07:47:55;;;;;;;14.68;7.28;;;;;;;18.13;72.79;100469.69;1770499;81;21009;-81
2021/09/25 07:50:21;;;;;;;18.37;8.35;;;;;;;18.07;72.71;100478.66;1759178;81;21501;-81
2021/09/25 07:52:47;;;;;;;10.90;7.95;;;;;;;17.98;72.65;100471.33;1739048;82;21434;-81
2021/09/25 07:55:14;;;;;;;13.18;8.23;;;;;;;17.96;72.63;100481.52;1739542;82;21559;-81
2021/09/25 07:57:40;;;;;;;11.80;7.75;;;;;;;17.91;72.59;100477.28;1754075;80;21266;-81
2021/09/25 08:00:09;;;;;;;9.20;7.53;;;;;;;17.88;72.57;100480.41;1770561;81;21020;-81
2021/09/25 08:02:35;;;;;;;12.30;7.60;;;;;;;17.86;72.55;100486.05;1766471;81;21302;-81
2021/09/25 08:05:01;;;;;;;13.65;7.83;;;;;;;17.83;72.50;100482.95;1744266;82;20964;-81
2021/09/25 08:07:28;;;;;;;17.50;8.15;;;;;;;17.84;72.50;100481.88;1759357;80;20943;-81
2021/09/25 08:09:54;;;;;;;11.50;7.22;;;;;;;17.87;72.49;100486.88;1786748;79;21783;-81
2021/09/25 08:12:21;;;;;;;10.53;7.25;;;;;;;17.93;72.51;100489.53;1797226;79;21081;-81
2021/09/25 08:14:47;;;;;;;10.55;8.13;;;;;;;17.98;72.50;100490.77;1791826;79;21003;-81
2021/09/25 08:17:13;;;;;;;12.73;7.28;;;;;;;17.97;72.45;100489.94;1775423;80;21002;-81
2021/09/25 08:19:39;;;;;;;8.53;6.72;;;;;;;17.98;72.45;100501.56;1755710;81;21050;-81
2021/09/25 08:22:05;;;;;;;13.03;7.58;;;;;;;17.93;72.42;100495.45;1775327;80;21170;-81
2021/09/25 08:24:31;;;;;;;12.00;6.80;;;;;;;17.98;72.44;100491.56;1775358;80;21533;-81
2021/09/25 08:26:57;;;;;;;12.43;7.30;;;;;;;18.00;72.43;100502.99;1774757;80;20978;-82
2021/09/25 08:29:23;;;;;;;11.95;8.00;;;;;;;18.00;72.42;100505.69;1775544;80;21489;-82
2021/09/25 08:31:49;;;;;;;8.55;6.67;;;;;;;17.93;72.38;100504.89;1774957;80;21030;-83
2021/09/25 08:34:17;;;;;;;10.05;7.90;;;;;;;17.95;72.43;100510.38;1775241;80;21097;-83
2021/09/25 08:36:43;;;;;;;11.68;8.05;;;;;;;18.01;72.42;100501.95;1775264;80;21011;-83
2021/09/25 08:39:09;;;;;;;11.63;7.30;;;;;;;18.00;72.41;100509.73;1775215;80;21078;-82
2021/09/25 08:41:36;;;;;;;12.70;7.45;;;;;;;17.99;72.40;100509.42;1775380;80;21066;-82
2021/09/25 08:44:02;;;;;;;11.70;7.75;;;;;;;17.99;72.42;100512.13;1775112;80;21038;-82
2021/09/25 08:46:28;;;;;;;8.95;6.97;;;;;;;18.01;72.41;100518.15;1785554;79;21119;-83
2021/09/25 08:48:55;;;;;;;10.45;6.92;;;;;;;18.03;72.44;100517.40;1773432;80;21044;-83
2021/09/25 08:51:21;;;;;;;7.85;5.97;;;;;;;18.02;72.42;100519.78;1775978;80;21076;-83
2021/09/25 08:53:47;;;;;;;8.68;6.20;;;;;;;18.03;72.38;100518.75;1776020;80;21017;-82
2021/09/25 08:56:13;;;;;;;10.13;7.00;;;;;;;18.03;72.37;100518.75;1786161;80;20886;-82
2021/09/25 08:58:40;;;;;;;8.05;6.30;;;;;;;18.06;72.35;100515.61;1789150;79;21538;-81
2021/09/25 09:01:06;;;;;;;9.73;6.70;;;;;;;18.13;72.39;100515.06;1795670;79;20983;-82
2021/09/25 09:03:37;;;;;;;11.95;5.70;;;;;;;18.26;72.38;100505.52;1785941;79;21034;-82
2021/09/25 09:06:15;;;;;;;13.80;7.22;;;;;;;18.39;72.34;100497.87;1790816;80;21483;-82
2021/09/25 09:08:44;;;;;;;8.25;5.72;;;;;;;18.51;72.28;100504.80;1759980;80;21029;-82
2021/09/25 09:11:10;;;;;;;8.68;6.92;;;;;;;18.59;72.25;100506.69;1725197;82;21066;-83
2021/09/25 09:13:39;;;;;;;7.45;6.05;;;;;;;18.66;72.16;100505.28;1737614;81;21435;-83
2021/09/25 09:16:07;;;;;;;8.68;6.70;;;;;;;18.79;72.16;100510.05;1742698;81;20986;-82
2021/09/25 09:18:39;;;;;;;12.68;9.05;;;;;;;18.90;72.07;100510.69;1725674;81;21053;-83
2021/09/25 09:21:22;;;;;;;12.23;6.95;;;;;;;19.01;72.01;100515.06;1742813;81;21042;-83
2021/09/25 09:23:55;;;;;;;11.50;6.70;;;;;;;19.10;71.92;100519.16;1717008;82;21745;-82
2021/09/25 09:26:23;;;;;;;8.05;6.17;;;;;;;19.13;71.73;100517.36;1740621;82;21857;-83
2021/09/25 09:28:51;;;;;;;12.68;6.70;;;;;;;19.12;71.53;100521.93;1712813;83;21026;-83
2021/09/25 09:31:18;;;;;;;16.82;9.53;;;;;;;19.21;71.51;100523.28;1740647;82;21041;-82
2021/09/25 09:33:56;;;;;;;20.50;12.13;;;;;;;19.36;71.44;100525.12;1754527;81;21049;-82
2021/09/25 09:36:40;;;;;;;12.40;7.08;;;;;;;19.60;71.40;100525.33;1740918;82;21868;-83
2021/09/25 09:39:17;;;;;;;11.05;6.22;;;;;;;19.80;71.26;100524.56;1747099;81;20986;-82
2021/09/25 09:41:46;;;;;;;7.53;5.53;;;;;;;19.77;71.00;100519.61;1746373;81;21493;-83
2021/09/25 09:44:20;;;;;;;11.80;6.47;;;;;;;19.74;70.84;100525.45;1744432;82;20974;-83
2021/09/25 09:46:55;;;;;;;9.15;6.37;;;;;;;19.81;70.76;100530.25;1743486;81;20951;-82
2021/09/25 09:49:30;;;;;;;10.25;5.85;;;;;;;19.74;70.46;100522.73;1763361;81;21094;-82
2021/09/25 09:52:06;;;;;;;16.35;8.33;;;;;;;19.58;70.24;100523.36;1747898;80;21021;-82
2021/09/25 09:54:36;;;;;;;8.73;6.28;;;;;;;19.73;70.30;100531.94;1751703;81;21545;-82
2021/09/25 09:57:09;;;;;;;8.50;5.35;;;;;;;19.81;70.15;100537.02;1751102;81;20934;-82
2021/09/25 09:59:35;;;;;;;7.35;4.90;;;;;;;19.88;70.10;100535.06;1754772;81;21006;-82
2021/09/25 10:02:01;;;;;;;7.62;4.45;;;;;;;19.81;69.83;100527.55;1755768;81;21483;-82
2021/09/25 10:04:27;;;;;;;7.35;5.45;;;;;;;19.73;69.75;100534.64;1711156;83;21090;-82
2021/09/25 10:06:53;;;;;;;11.60;5.30;;;;;;;19.73;69.65;100535.47;1733787;82;21002;-82
2021/09/25 10:09:25;;;;;;;11.68;5.87;;;;;;;19.77;69.64;100539.91;1744248;80;20959;-82
2021/09/25 10:11:54;;;;;;;6.80;4.75;;;;;;;19.77;69.50;100542.61;1744592;82;20982;-82
2021/09/25 10:14:23;;;;;;;8.28;5.17;;;;;;;19.71;69.38;100542.14;1744654;81;21972;-82
2021/09/25 10:16:50;;;;;;;10.80;4.83;;;;;;;19.66;69.37;100553.66;1744648;82;21580;-82
2021/09/25 10:19:19;;;;;;;7.05;4.15;;;;;;;19.71;69.38;100559.73;1741930;81;20994;-82
2021/09/25 10:21:47;;;;;;;6.15;4.35;;;;;;;19.75;69.33;100554.17;1718312;82;21044;-82
2021/09/25 10:24:23;;;;;;;8.63;5.03;;;;;;;19.72;69.28;100550.56;1714826;82;21595;-82
2021/09/25 10:26:49;;;;;;;8.70;4.75;;;;;;;19.65;69.19;100548.46;1714739;82;21907;-82
2021/09/25 10:29:23;;;;;;;8.88;4.67;;;;;;;19.61;69.15;100558.08;1684577;84;21020;-83
2021/09/25 10:31:50;;;;;;;9.15;4.67;;;;;;;19.64;69.16;100552.21;1735258;82;21005;-82
2021/09/25 10:34:27;;;;;;;9.50;3.95;;;;;;;19.78;69.18;100558.61;1714354;82;21134;-82
2021/09/25 10:36:56;;;;;;;9.40;4.50;;;;;;;19.85;69.13;100561.23;1735561;82;21061;-83
2021/09/25 10:39:35;;;;;;;8.27;4.10;;;;;;;19.85;69.07;100559.36;1735708;82;21233;-83
2021/09/25 10:42:12;;;;;;;6.35;4.33;;;;;;;19.86;69.04;100569.66;1735499;82;20993;-83
2021/09/25 10:44:48;;;;;;;5.70;4.20;;;;;;;19.87;68.91;100567.27;1735374;82;21518;-82
2021/09/25 10:47:21;;;;;;;6.58;4.97;;;;;;;19.82;68.76;100564.39;1735559;82;20962;-83
2021/09/25 10:49:56;;;;;;;4.72;4.22;;;;;;;19.85;68.70;100562.59;1735376;82;21074;-82
2021/09/25 10:52:51;;;;;;;7.47;4.70;;;;;;;20.03;68.72;100570.70;1735534;82;21449;-82
2021/09/25 10:55:29;;;;;;;7.80;5.30;;;;;;;20.15;68.63;100559.41;1702987;82;21584;-82
2021/09/25 10:58:19;;;;;;;9.23;3.92;;;;;;;20.23;68.51;100565.84;1735090;82;21026;-81
2021/09/25 11:00:57;;;;;;;7.15;4.00;;;;;;;20.32;68.36;100565.87;1735400;82;21126;-81
2021/09/25 11:03:55;;;;;;;11.37;4.50;;;;;;;20.41;68.21;100571.26;1735513;82;21442;-81
2021/09/25 11:06:28;;;;;;;8.73;4.00;;;;;;;20.52;68.03;100568.81;1735226;82;21161;-81
2021/09/25 11:09:04;;;;;;;10.60;4.80;;;;;;;20.54;67.71;100569.43;1743581;81;21053;-81
2021/09/25 11:11:37;;;;;;;7.05;3.92;;;;;;;20.70;67.73;100568.23;1753012;81;21014;-82
2021/09/25 11:14:08;;;;;;;9.88;3.98;;;;;;;20.81;67.48;100562.54;1753385;81;20985;-83
2021/09/25 11:16:57;;;;;;;4.58;3.45;;;;;;;20.87;67.32;100568.38;1712398;83;21043;-83
2021/09/25 11:19:29;;;;;;;6.30;3.60;;;;;;;20.96;67.16;100570.23;1758313;81;21090;-82
2021/09/25 11:22:14;;;;;;;7.12;4.15;;;;;;;21.02;66.91;100573.36;1739898;82;20944;-82
2021/09/25 11:24:51;;;;;;;5.62;3.62;;;;;;;20.99;66.68;100573.30;1739932;82;21046;-82